createdAt,value
2018-12-16T00:00:29.994Z,17.07
2018-12-16T00:02:55.936Z,16.93
2018-12-16T00:05:21.917Z,17.60
2018-12-16T00:07:47.889Z,16.70
2018-12-16T00:10:13.884Z,17.30
2018-12-16T00:12:39.846Z,17.50
2018-12-16T00:15:05.872Z,18.03
2018-12-16T00:17:31.839Z,17.93
2018-12-16T00:19:57.842Z,18.57
2018-12-16T00:22:29.744Z,18.47
2018-12-16T00:24:51.888Z,17.47
2018-12-16T00:27:17.912Z,18.37
2018-12-16T00:29:43.889Z,18.03
2018-12-16T00:32:09.876Z,18.60
2018-12-16T00:34:35.830Z,17.90
2018-12-16T00:37:01.826Z,18.70
2018-12-16T00:39:27.908Z,18.80
2018-12-16T00:41:53.893Z,19.77
2018-12-16T00:44:19.892Z,19.23
2018-12-16T00:46:45.865Z,19.57
2018-12-16T00:49:11.883Z,18.60
2018-12-16T00:51:37.866Z,19.43
2018-12-16T00:54:03.883Z,18.37
2018-12-16T00:56:29.849Z,18.77
2018-12-16T00:58:55.947Z,20.40
2018-12-16T01:01:22.001Z,22.23
2018-12-16T01:03:48.067Z,24.20
2018-12-16T01:06:14.073Z,23.60
2018-12-16T01:08:40.068Z,22.53
2018-12-16T01:11:06.569Z,23.10
2018-12-16T01:13:39.545Z,21.80
2018-12-16T01:16:05.573Z,23.43
2018-12-16T01:18:31.551Z,24.33
2018-12-16T01:20:57.519Z,25.13
2018-12-16T01:23:23.568Z,25.23
2018-12-16T01:25:49.518Z,24.47
2018-12-16T01:28:15.499Z,25.23
2018-12-16T01:30:41.605Z,24.37
2018-12-16T01:33:07.612Z,25.23
2018-12-16T01:35:33.576Z,25.47
2018-12-16T01:37:59.565Z,24.70
2018-12-16T01:40:26.084Z,23.80
2018-12-16T01:42:52.053Z,23.80
2018-12-16T01:45:18.071Z,25.07
2018-12-16T01:47:44.052Z,24.73
2018-12-16T01:50:10.132Z,24.57
2018-12-16T01:52:36.088Z,24.37
2018-12-16T01:55:02.099Z,24.50
2018-12-16T01:57:28.048Z,22.53
2018-12-16T01:59:54.710Z,22.50
2018-12-16T02:02:20.703Z,22.37
2018-12-16T02:04:46.668Z,21.30
2018-12-16T02:07:12.674Z,21.57
2018-12-16T02:09:38.707Z,22.73
2018-12-16T02:12:04.684Z,21.53
2018-12-16T02:14:30.687Z,20.70
2018-12-16T02:16:56.665Z,19.27
2018-12-16T02:19:22.645Z,19.97
2018-12-16T02:21:48.625Z,20.40
2018-12-16T02:24:14.623Z,20.53
2018-12-16T02:26:40.699Z,20.00
2018-12-16T02:29:06.657Z,19.33
2018-12-16T02:31:32.663Z,20.73
2018-12-16T02:33:58.661Z,19.73
2018-12-16T02:36:24.671Z,20.37
2018-12-16T02:38:50.639Z,19.10
2018-12-16T02:41:16.644Z,20.27
2018-12-16T02:43:42.619Z,19.83
2018-12-16T02:46:08.619Z,19.03
2018-12-16T02:48:34.955Z,20.20
2018-12-16T02:51:00.953Z,19.50
2018-12-16T02:53:26.974Z,20.80
2018-12-16T02:55:52.924Z,19.70
2018-12-16T02:58:18.925Z,20.50
2018-12-16T03:00:44.944Z,21.53
2018-12-16T03:03:11.088Z,22.03
2018-12-16T03:05:37.089Z,21.30
2018-12-16T03:08:03.220Z,21.13
2018-12-16T03:10:29.172Z,20.70
2018-12-16T03:12:55.127Z,21.77
2018-12-16T03:15:21.144Z,20.17
2018-12-16T03:17:47.146Z,21.23
2018-12-16T03:20:13.132Z,20.00
2018-12-16T03:22:39.112Z,20.07
2018-12-16T03:25:05.429Z,19.17
2018-12-16T03:27:31.408Z,20.50
2018-12-16T03:29:57.403Z,20.37
2018-12-16T03:32:23.356Z,20.90
2018-12-16T03:34:49.378Z,18.60
2018-12-16T03:37:15.350Z,18.63
2018-12-16T03:39:41.340Z,20.53
2018-12-16T03:42:07.343Z,20.37
2018-12-16T03:44:33.351Z,18.27
2018-12-16T03:46:59.327Z,20.90
2018-12-16T03:49:25.289Z,20.20
2018-12-16T03:51:51.558Z,18.97
2018-12-16T03:54:17.523Z,19.30
2018-12-16T03:56:43.575Z,18.70
2018-12-16T03:59:15.031Z,19.50
2018-12-16T04:01:41.021Z,18.27
2018-12-16T04:04:06.976Z,18.93
2018-12-16T04:06:32.997Z,19.20
2018-12-16T04:08:59.005Z,18.70
2018-12-16T04:11:24.977Z,18.80
2018-12-16T04:13:51.084Z,19.93
2018-12-16T04:16:17.062Z,18.37
2018-12-16T04:18:48.326Z,18.80
2018-12-16T04:21:14.568Z,20.60
2018-12-16T04:23:40.566Z,18.83
2018-12-16T04:26:13.565Z,19.67
2018-12-16T04:28:39.992Z,21.87
2018-12-16T04:31:06.024Z,21.77
2018-12-16T04:33:31.987Z,19.57
2018-12-16T04:35:57.975Z,20.33
2018-12-16T04:38:23.945Z,20.57
2018-12-16T04:40:49.940Z,21.73
2018-12-16T04:43:15.898Z,20.90
2018-12-16T04:45:41.910Z,22.47
2018-12-16T04:48:08.044Z,21.43
2018-12-16T04:50:34.001Z,21.33
2018-12-16T04:52:59.985Z,19.97
2018-12-16T04:55:25.988Z,21.50
2018-12-16T04:57:52.075Z,22.10
2018-12-16T05:00:18.126Z,20.40
2018-12-16T05:02:44.093Z,21.50
2018-12-16T05:05:10.101Z,21.03
2018-12-16T05:07:36.053Z,20.20
2018-12-16T05:10:14.372Z,20.97
2018-12-16T05:12:40.358Z,19.00
2018-12-16T05:15:06.358Z,18.10
2018-12-16T05:17:32.359Z,16.50
2018-12-16T05:19:58.345Z,17.93
2018-12-16T05:22:24.343Z,16.97
2018-12-16T05:24:50.311Z,18.03
2018-12-16T05:27:16.368Z,17.03
2018-12-16T05:29:42.335Z,16.77
2018-12-16T05:32:08.349Z,18.13
2018-12-16T05:34:34.300Z,17.93
2018-12-16T05:37:00.319Z,17.63
2018-12-16T05:39:26.266Z,16.23
2018-12-16T05:41:52.262Z,17.17
2018-12-16T05:44:18.214Z,15.70
2018-12-16T05:46:44.212Z,17.43
2018-12-16T05:49:10.175Z,16.50
2018-12-16T05:51:36.281Z,16.43
2018-12-16T05:54:02.276Z,16.17
2018-12-16T05:56:28.245Z,16.00
2018-12-16T05:58:54.267Z,17.03
2018-12-16T06:01:20.316Z,17.40
2018-12-16T06:03:46.262Z,15.70
2018-12-16T06:06:15.378Z,16.57
2018-12-16T06:08:41.579Z,19.10
2018-12-16T06:11:07.574Z,18.57
2018-12-16T06:13:33.556Z,19.67
2018-12-16T06:15:59.536Z,16.37
2018-12-16T06:18:25.541Z,19.37
2018-12-16T06:20:51.602Z,18.03
2018-12-16T06:23:17.593Z,18.30
2018-12-16T06:25:43.540Z,17.20
2018-12-16T06:28:09.528Z,15.80
2018-12-16T06:30:36.131Z,14.77
2018-12-16T06:33:02.125Z,14.67
2018-12-16T06:35:28.116Z,14.60
2018-12-16T06:37:54.127Z,14.17
2018-12-16T06:40:20.105Z,14.67
2018-12-16T06:42:46.070Z,15.60
2018-12-16T06:45:12.072Z,14.63
2018-12-16T06:47:38.048Z,15.03
2018-12-16T06:50:05.423Z,15.57
2018-12-16T06:52:31.430Z,15.37
2018-12-16T06:54:57.395Z,15.73
2018-12-16T06:57:23.516Z,16.53
2018-12-16T06:59:49.472Z,15.77
2018-12-16T07:02:15.432Z,16.10
2018-12-16T07:04:41.424Z,15.73
2018-12-16T07:07:07.509Z,16.33
2018-12-16T07:09:33.562Z,16.37
2018-12-16T07:11:59.532Z,16.63
2018-12-16T07:14:25.540Z,15.80
2018-12-16T07:16:51.527Z,15.27
2018-12-16T07:19:17.635Z,16.87
2018-12-16T07:21:43.719Z,15.43
2018-12-16T07:24:09.753Z,16.27
2018-12-16T07:26:35.713Z,15.93
2018-12-16T07:29:01.695Z,16.03
2018-12-16T07:31:27.702Z,16.17
2018-12-16T07:33:53.826Z,16.93
2018-12-16T07:36:19.905Z,15.77
2018-12-16T07:38:45.924Z,17.43
2018-12-16T07:41:11.927Z,20.57
2018-12-16T07:43:38.003Z,18.87
2018-12-16T07:46:04.002Z,17.80
2018-12-16T07:48:30.302Z,17.50
2018-12-16T07:50:56.306Z,18.10
2018-12-16T07:53:22.904Z,18.50
2018-12-16T07:55:48.906Z,17.97
2018-12-16T07:58:14.881Z,19.53
2018-12-16T08:00:41.024Z,19.37
2018-12-16T08:03:07.086Z,19.70
2018-12-16T08:05:33.095Z,20.87
2018-12-16T08:07:59.191Z,19.43
2018-12-16T08:10:25.336Z,18.83
2018-12-16T08:12:51.306Z,20.23
2018-12-16T08:15:17.300Z,19.87
2018-12-16T08:17:43.289Z,18.77
2018-12-16T08:20:09.374Z,20.07
2018-12-16T08:22:35.489Z,19.80
2018-12-16T08:25:01.565Z,19.37
2018-12-16T08:27:27.520Z,20.77
2018-12-16T08:29:53.529Z,20.07
2018-12-16T08:32:19.479Z,19.17
2018-12-16T08:34:45.536Z,18.77
2018-12-16T08:37:11.553Z,19.17
2018-12-16T08:39:37.507Z,18.93
2018-12-16T08:42:03.525Z,19.33
2018-12-16T08:44:29.497Z,19.80
2018-12-16T08:46:55.573Z,20.47
2018-12-16T08:49:21.527Z,19.50
2018-12-16T08:51:47.570Z,20.07
2018-12-16T08:54:13.568Z,20.90
2018-12-16T08:56:39.657Z,21.37
2018-12-16T08:59:05.752Z,20.83
2018-12-16T09:01:31.833Z,21.13
2018-12-16T09:03:58.032Z,20.63
2018-12-16T09:06:24.041Z,22.13
2018-12-16T09:08:50.432Z,21.53
2018-12-16T09:11:16.551Z,20.87
2018-12-16T09:13:42.544Z,20.40
2018-12-16T09:16:08.517Z,20.87
2018-12-16T09:18:34.658Z,21.83
2018-12-16T09:21:00.624Z,22.13
2018-12-16T09:23:26.577Z,21.77
2018-12-16T09:25:52.605Z,21.37
2018-12-16T09:28:18.570Z,21.73
2018-12-16T09:30:44.544Z,19.83
2018-12-16T09:33:10.541Z,22.60
2018-12-16T09:35:36.519Z,20.93
2018-12-16T09:38:02.534Z,21.53
2018-12-16T09:40:28.548Z,21.77
2018-12-16T09:42:54.789Z,21.07
2018-12-16T09:45:20.813Z,22.07
2018-12-16T09:47:46.903Z,22.67
2018-12-16T09:50:12.887Z,22.03
2018-12-16T09:52:38.910Z,22.13
2018-12-16T09:55:05.339Z,22.10
2018-12-16T09:57:31.336Z,22.93
2018-12-16T09:59:57.329Z,22.30
2018-12-16T10:02:23.335Z,21.80
2018-12-16T10:04:49.310Z,21.83
2018-12-16T10:07:15.298Z,22.20
2018-12-16T10:09:41.264Z,22.47
2018-12-16T10:12:07.302Z,21.73
2018-12-16T10:14:33.963Z,21.73
2018-12-16T10:16:59.978Z,21.63
2018-12-16T10:19:26.060Z,21.87
2018-12-16T10:21:52.012Z,22.23
2018-12-16T10:24:18.701Z,21.33
2018-12-16T10:26:45.994Z,22.10
2018-12-16T10:29:12.223Z,21.07
2018-12-16T10:31:38.218Z,22.03
2018-12-16T10:34:04.217Z,21.17
2018-12-16T10:36:30.186Z,19.90
2018-12-16T10:38:56.246Z,21.37
2018-12-16T10:41:22.245Z,21.47
2018-12-16T10:43:48.254Z,21.00
2018-12-16T10:46:14.226Z,19.67
2018-12-16T10:48:40.266Z,19.47
2018-12-16T10:51:06.256Z,21.40
2018-12-16T10:53:32.248Z,20.90
2018-12-16T10:55:58.250Z,19.47
2018-12-16T10:58:24.233Z,17.83
2018-12-16T11:00:56.371Z,20.23
2018-12-16T11:03:22.425Z,20.83
2018-12-16T11:05:48.397Z,17.90
2018-12-16T11:08:14.397Z,18.37
2018-12-16T11:10:40.368Z,19.27
2018-12-16T11:13:07.307Z,17.87
2018-12-16T11:15:33.285Z,17.37
2018-12-16T11:17:59.279Z,18.47
2018-12-16T11:20:25.279Z,16.20
2018-12-16T11:22:51.314Z,18.43
2018-12-16T11:25:17.368Z,16.80
2018-12-16T11:27:43.324Z,17.57
2018-12-16T11:30:10.096Z,16.60
2018-12-16T11:32:36.581Z,17.07
2018-12-16T11:35:04.480Z,16.57
2018-12-16T11:37:30.486Z,17.07
2018-12-16T11:39:56.566Z,17.17
2018-12-16T11:42:22.523Z,16.53
2018-12-16T11:44:48.558Z,15.77
2018-12-16T11:47:14.516Z,16.17
2018-12-16T11:49:40.506Z,15.27
2018-12-16T11:52:06.462Z,15.10
2018-12-16T11:54:32.534Z,15.57
2018-12-16T11:56:58.502Z,14.50
2018-12-16T11:59:24.523Z,15.13
2018-12-16T12:01:50.519Z,15.33
2018-12-16T12:04:16.515Z,14.50
2018-12-16T12:06:42.487Z,16.00
2018-12-16T12:09:08.486Z,14.97
2018-12-16T12:11:34.493Z,15.57
2018-12-16T12:14:00.553Z,15.43
2018-12-16T12:16:26.572Z,13.37
2018-12-16T12:18:58.051Z,13.80
2018-12-16T12:21:24.715Z,15.50
2018-12-16T12:23:50.700Z,14.60
2018-12-16T12:26:16.706Z,18.37
2018-12-16T12:28:43.016Z,36.53
2018-12-16T12:31:09.172Z,19.33
2018-12-16T12:33:35.154Z,16.03
2018-12-16T12:36:01.165Z,16.97
2018-12-16T12:38:27.174Z,14.53
2018-12-16T12:40:53.158Z,15.50
2018-12-16T12:43:19.238Z,14.90
2018-12-16T12:45:45.190Z,16.50
2018-12-16T12:48:11.219Z,15.60
2018-12-16T12:50:37.187Z,14.03
2018-12-16T12:53:03.246Z,14.57
2018-12-16T12:55:29.230Z,13.80
2018-12-16T12:57:55.307Z,15.57
2018-12-16T13:00:21.366Z,15.77
2018-12-16T13:02:47.448Z,16.30
2018-12-16T13:05:13.455Z,15.27
2018-12-16T13:07:39.441Z,16.63
2018-12-16T13:10:07.470Z,15.97
2018-12-16T13:12:33.466Z,14.87
2018-12-16T13:14:59.430Z,14.43
2018-12-16T13:17:25.433Z,13.47
2018-12-16T13:19:51.401Z,13.93
2018-12-16T13:22:17.403Z,14.70
2018-12-16T13:24:55.637Z,14.63
2018-12-16T13:27:21.623Z,13.80
2018-12-16T13:29:47.641Z,14.03
2018-12-16T13:32:13.652Z,14.00
2018-12-16T13:34:39.716Z,13.90
2018-12-16T13:37:06.244Z,13.70
2018-12-16T13:39:32.358Z,13.70
2018-12-16T13:41:58.320Z,12.83
2018-12-16T13:44:24.262Z,14.17
2018-12-16T13:46:50.275Z,13.73
2018-12-16T13:49:16.244Z,13.53
2018-12-16T13:51:42.242Z,14.50
2018-12-16T13:54:08.207Z,14.07
2018-12-16T13:56:34.234Z,13.73
2018-12-16T13:59:00.290Z,13.53
2018-12-16T14:01:26.191Z,12.90
2018-12-16T14:03:52.200Z,14.27
2018-12-16T14:06:18.131Z,14.40
2018-12-16T14:08:44.142Z,13.67
2018-12-16T14:11:10.102Z,13.27
2018-12-16T14:13:36.212Z,14.30
2018-12-16T14:16:02.204Z,13.43
2018-12-16T14:18:28.210Z,13.30
2018-12-16T14:20:54.180Z,12.80
2018-12-16T14:23:20.247Z,13.23
2018-12-16T14:25:48.066Z,12.63
2018-12-16T14:28:14.304Z,13.13
2018-12-16T14:30:40.255Z,12.60
2018-12-16T14:33:06.255Z,12.97
2018-12-16T14:35:32.543Z,12.67
2018-12-16T14:37:58.863Z,12.17
2018-12-16T14:40:24.890Z,13.00
2018-12-16T14:42:50.936Z,12.93
2018-12-16T14:45:16.882Z,15.53
2018-12-16T14:47:42.903Z,13.60
2018-12-16T14:50:08.884Z,13.07
2018-12-16T14:52:34.940Z,14.00
2018-12-16T14:55:00.953Z,13.50
2018-12-16T14:57:26.922Z,14.50
2018-12-16T14:59:52.961Z,15.07
2018-12-16T15:02:18.983Z,14.00
2018-12-16T15:04:44.975Z,13.73
2018-12-16T15:07:10.969Z,13.93
2018-12-16T15:09:36.961Z,15.63
2018-12-16T15:12:02.975Z,15.30
2018-12-16T15:14:28.936Z,16.90
2018-12-16T15:17:02.062Z,15.67
2018-12-16T15:19:28.581Z,14.47
2018-12-16T15:21:54.774Z,15.23
2018-12-16T15:24:20.869Z,15.40
2018-12-16T15:26:46.854Z,14.53
2018-12-16T15:29:12.878Z,14.07
2018-12-16T15:31:38.859Z,14.60
2018-12-16T15:34:04.855Z,13.20
2018-12-16T15:36:30.854Z,14.10
2018-12-16T15:38:56.858Z,14.57
2018-12-16T15:41:22.855Z,13.67
2018-12-16T15:43:48.857Z,14.00
2018-12-16T15:46:14.964Z,13.67
2018-12-16T15:48:40.978Z,14.00
2018-12-16T15:51:06.948Z,14.30
2018-12-16T15:53:32.968Z,13.30
2018-12-16T15:55:58.990Z,14.40
2018-12-16T15:58:25.006Z,13.60
2018-12-16T16:00:51.012Z,14.80
2018-12-16T16:03:17.038Z,14.20
2018-12-16T16:05:43.030Z,14.10
2018-12-16T16:08:16.183Z,14.70
2018-12-16T16:10:37.173Z,14.73
2018-12-16T16:13:03.159Z,14.60
2018-12-16T16:15:29.236Z,15.00
2018-12-16T16:17:55.201Z,14.90
2018-12-16T16:20:21.293Z,15.87
2018-12-16T16:22:47.435Z,15.17
2018-12-16T16:25:13.443Z,15.03
2018-12-16T16:27:39.523Z,15.00
2018-12-16T16:30:07.115Z,14.23
2018-12-16T16:32:33.287Z,14.93
2018-12-16T16:34:59.255Z,14.77
2018-12-16T16:37:25.284Z,15.37
2018-12-16T16:39:51.253Z,15.53
2018-12-16T16:42:17.283Z,15.70
2018-12-16T16:44:43.267Z,15.30
2018-12-16T16:47:09.238Z,14.50
2018-12-16T16:49:35.243Z,14.60
2018-12-16T16:52:01.323Z,16.00
2018-12-16T16:54:27.327Z,14.37
2018-12-16T16:56:53.383Z,15.17
2018-12-16T16:59:20.852Z,16.33
2018-12-16T17:01:46.929Z,15.33
2018-12-16T17:04:13.007Z,15.37
2018-12-16T17:06:39.002Z,16.70
2018-12-16T17:09:06.531Z,16.87
2018-12-16T17:11:32.550Z,17.07
2018-12-16T17:13:58.988Z,16.43
2018-12-16T17:16:25.006Z,15.57
2018-12-16T17:18:51.614Z,16.83
2018-12-16T17:21:17.618Z,17.07
2018-12-16T17:23:43.582Z,16.87
2018-12-16T17:26:09.694Z,16.10
2018-12-16T17:28:35.708Z,18.47
2018-12-16T17:31:01.801Z,16.97
2018-12-16T17:33:27.811Z,16.53
2018-12-16T17:35:53.826Z,17.80
2018-12-16T17:38:19.879Z,17.10
2018-12-16T17:40:45.893Z,16.97
2018-12-16T17:43:11.974Z,18.40
2018-12-16T17:45:38.032Z,17.03
2018-12-16T17:48:04.005Z,18.60
2018-12-16T17:50:30.144Z,19.27
2018-12-16T17:52:56.189Z,18.90
2018-12-16T17:55:22.325Z,19.57
2018-12-16T17:57:48.407Z,20.43
2018-12-16T18:00:14.581Z,20.13
2018-12-16T18:02:40.544Z,21.87
2018-12-16T18:05:06.535Z,19.87
2018-12-16T18:07:32.492Z,20.33
2018-12-16T18:09:58.631Z,20.83
2018-12-16T18:12:24.608Z,20.60
2018-12-16T18:14:50.643Z,21.77
2018-12-16T18:17:16.637Z,24.90
2018-12-16T18:19:42.603Z,26.00
2018-12-16T18:22:13.955Z,26.10
2018-12-16T18:24:36.734Z,27.03
2018-12-16T18:27:02.764Z,26.03
2018-12-16T18:29:28.821Z,29.20
2018-12-16T18:31:54.834Z,27.03
2018-12-16T18:34:20.806Z,25.40
2018-12-16T18:36:46.865Z,23.33
2018-12-16T18:39:12.891Z,21.80
2018-12-16T18:41:39.888Z,21.73
2018-12-16T18:44:06.582Z,21.77
2018-12-16T18:46:32.561Z,20.27
2018-12-16T18:48:58.749Z,21.70
2018-12-16T18:51:24.768Z,19.67
2018-12-16T18:53:50.762Z,21.73
2018-12-16T18:56:16.846Z,21.70
2018-12-16T18:58:42.810Z,20.80
2018-12-16T19:01:08.842Z,21.27
2018-12-16T19:03:34.832Z,21.60
2018-12-16T19:06:00.848Z,22.53
2018-12-16T19:08:26.963Z,23.67
2018-12-16T19:10:53.007Z,21.50
2018-12-16T19:13:19.023Z,21.67
2018-12-16T19:15:45.050Z,22.13
2018-12-16T19:18:11.059Z,21.63
2018-12-16T19:20:37.096Z,22.57
2018-12-16T19:23:03.161Z,24.43
2018-12-16T19:25:29.167Z,21.77
2018-12-16T19:27:55.241Z,21.40
2018-12-16T19:30:21.231Z,22.70
2018-12-16T19:32:47.240Z,21.93
2018-12-16T19:35:13.273Z,22.67
2018-12-16T19:37:39.281Z,20.63
2018-12-16T19:40:05.462Z,23.63
2018-12-16T19:42:31.547Z,22.70
2018-12-16T19:44:57.567Z,22.77
2018-12-16T19:47:23.609Z,22.03
2018-12-16T19:49:49.653Z,21.37
2018-12-16T19:52:15.739Z,22.13
2018-12-16T19:54:42.177Z,22.77
2018-12-16T19:57:08.351Z,22.47
2018-12-16T19:59:34.389Z,22.83
2018-12-16T20:02:00.413Z,22.73
2018-12-16T20:04:28.419Z,22.10
2018-12-16T20:06:54.515Z,20.60
2018-12-16T20:09:20.683Z,21.00
2018-12-16T20:11:46.686Z,23.07
2018-12-16T20:14:12.708Z,23.17
2018-12-16T20:16:38.686Z,23.00
2018-12-16T20:19:04.808Z,22.20
2018-12-16T20:21:30.863Z,21.57
2018-12-16T20:23:56.918Z,22.47
2018-12-16T20:26:23.123Z,22.13
2018-12-16T20:28:49.150Z,23.00
2018-12-16T20:31:15.148Z,22.63
2018-12-16T20:33:41.167Z,22.53
2018-12-16T20:36:07.352Z,22.70
2018-12-16T20:38:33.383Z,23.53
2018-12-16T20:40:59.483Z,21.10
2018-12-16T20:43:25.498Z,23.67
2018-12-16T20:45:51.722Z,23.23
2018-12-16T20:48:17.760Z,21.63
2018-12-16T20:50:43.766Z,21.83
2018-12-16T20:53:09.767Z,22.53
2018-12-16T20:55:35.844Z,23.30
2018-12-16T20:58:01.937Z,22.30
2018-12-16T21:00:28.005Z,22.97
2018-12-16T21:02:53.993Z,22.50
2018-12-16T21:05:20.034Z,24.27
2018-12-16T21:07:46.154Z,24.20
2018-12-16T21:10:12.127Z,22.63
2018-12-16T21:12:44.415Z,23.07
2018-12-16T21:15:16.459Z,23.90
2018-12-16T21:17:48.643Z,23.33
2018-12-16T21:20:14.629Z,22.10
2018-12-16T21:22:40.589Z,23.03
2018-12-16T21:25:06.623Z,23.70
2018-12-16T21:27:33.757Z,22.60
2018-12-16T21:29:59.747Z,22.60
2018-12-16T21:32:25.784Z,22.67
2018-12-16T21:34:51.769Z,24.00
2018-12-16T21:37:17.733Z,23.73
2018-12-16T21:39:43.743Z,24.13
2018-12-16T21:42:09.733Z,22.97
2018-12-16T21:44:35.711Z,24.33
2018-12-16T21:47:01.713Z,24.23
2018-12-16T21:49:27.709Z,23.63
2018-12-16T21:51:53.659Z,22.90
2018-12-16T21:54:19.657Z,23.77
2018-12-16T21:56:45.735Z,24.00
2018-12-16T21:59:11.740Z,23.70
2018-12-16T22:01:37.738Z,23.70
2018-12-16T22:04:03.693Z,24.20
2018-12-16T22:06:29.696Z,23.63
2018-12-16T22:08:55.734Z,25.00
2018-12-16T22:11:21.737Z,23.63
2018-12-16T22:13:47.694Z,24.67
2018-12-16T22:16:13.702Z,23.67
2018-12-16T22:18:39.686Z,25.03
2018-12-16T22:21:05.648Z,25.33
2018-12-16T22:23:31.640Z,22.83
2018-12-16T22:25:57.638Z,24.80
2018-12-16T22:28:23.838Z,23.03
2018-12-16T22:30:49.977Z,23.73
2018-12-16T22:33:16.036Z,25.07
2018-12-16T22:35:42.112Z,25.10
2018-12-16T22:38:08.108Z,24.97
2018-12-16T22:40:34.449Z,24.37
2018-12-16T22:43:00.435Z,24.33
2018-12-16T22:45:26.443Z,24.60
2018-12-16T22:47:52.517Z,24.17
2018-12-16T22:50:18.663Z,24.10
2018-12-16T22:52:44.646Z,23.93
2018-12-16T22:55:10.653Z,24.17
2018-12-16T22:57:36.606Z,26.13
2018-12-16T23:00:03.721Z,25.20
2018-12-16T23:02:29.691Z,25.47
2018-12-16T23:04:55.757Z,25.40
2018-12-16T23:07:21.765Z,26.67
2018-12-16T23:09:47.733Z,25.13
2018-12-16T23:12:13.759Z,24.20
2018-12-16T23:14:39.825Z,24.80
2018-12-16T23:17:05.843Z,26.53
2018-12-16T23:19:31.915Z,23.53
2018-12-16T23:21:57.890Z,25.87
2018-12-16T23:24:24.910Z,25.33
2018-12-16T23:26:50.977Z,25.47
2018-12-16T23:29:16.997Z,24.80
2018-12-16T23:31:42.990Z,25.07
2018-12-16T23:34:08.995Z,24.43
2018-12-16T23:36:35.032Z,25.90
2018-12-16T23:39:01.101Z,24.67
2018-12-16T23:41:27.267Z,25.43
2018-12-16T23:43:53.465Z,27.27
2018-12-16T23:46:19.471Z,26.87
2018-12-16T23:48:45.435Z,26.20
2018-12-16T23:51:11.423Z,25.47
2018-12-16T23:53:37.419Z,25.50
2018-12-16T23:56:03.369Z,25.07
2018-12-16T23:58:29.385Z,26.23
